Wetterdaten: Montag, 11.05.2015
Datum Zeit Temp. A. Mod.Schuppen Waschkche Feuchte A. Luftdruck Regen Wind Richtung Richtung Sonnenschein Helligkeit Solar
11.05.2015 00:03 14,1 C 10,2 C 17,3 C 64 % 1023,0 hPa 0,0 l/m 6,9 km/h (2 Bft) O 95 0 min 0 lux 0 W/m
11.05.2015 00:07 14,0 C 10,1 C 17,3 C 64 % 1023,0 hPa 0,0 l/m 7,2 km/h (2 Bft) O-SO22.5 105 0 min 0 lux 0 W/m
11.05.2015 00:13 14,0 C 10,0 C 17,3 C 64 % 1023,0 hPa 0,0 l/m 0,4 km/h (0 Bft) O-SO22.5 105 0 min 0 lux 0 W/m
11.05.2015 00:18 14,0 C 10,0 C 17,3 C 64 % 1023,0 hPa 0,0 l/m 1,2 km/h (1 Bft) O 95 0 min 0 lux 0 W/m
11.05.2015 00:23 13,8 C 9,9 C 17,2 C 64 % 1023,0 hPa 0,0 l/m 0,9 km/h (0 Bft) O 95 0 min 20,0 klux 0 W/m
11.05.2015 00:28 13,6 C 9,7 C 17,2 C 65 % 1023,0 hPa 0,0 l/m 0,3 km/h (0 Bft) O 95 0 min 0 lux 0 W/m
11.05.2015 00:33 13,4 C 9,6 C 17,2 C 65 % 1023,0 hPa 0,0 l/m 0,5 km/h (0 Bft) O 95 0 min 0 lux 0 W/m
11.05.2015 00:38 13,4 C 9,5 C 17,2 C 65 % 1023,0 hPa 0,0 l/m 0,1 km/h (0 Bft) O 95 0 min 0 lux 0 W/m
11.05.2015 00:43 13,2 C 9,4 C 17,1 C 66 % 1023,0 hPa 0,0 l/m 4,5 km/h (1 Bft) O 100 0 min 0 lux 0 W/m
11.05.2015 00:48 13,4 C 9,4 C 17,1 C 66 % 1023,0 hPa 0,0 l/m 0,7 km/h (0 Bft) O-SO 110 0 min 0 lux 0 W/m
11.05.2015 00:53 13,4 C 9,3 C 17,1 C 66 % 1023,0 hPa 0,0 l/m 6,8 km/h (2 Bft) O-SO 115 0 min 0 lux 0 W/m
11.05.2015 00:58 13,4 C 9,4 C 17,1 C 66 % 1023,0 hPa 0,0 l/m 0,6 km/h (0 Bft) O-SO 120 0 min 0 lux 0 W/m
11.05.2015 01:03 13,4 C 9,3 C 17,1 C 66 % 1023,0 hPa 0,0 l/m 0,2 km/h (0 Bft) O-SO 120 0 min 0 lux 0 W/m
11.05.2015 01:08 13,5 C 9,4 C 17,0 C 66 % 1023,0 hPa 0,0 l/m 5,5 km/h (2 Bft) O-SO 120 0 min 0 lux 0 W/m
11.05.2015 01:12 13,5 C 9,4 C 17,0 C 66 % 1023,0 hPa 0,0 l/m 1,5 km/h (1 Bft) SO 130 0 min 0 lux 0 W/m
11.05.2015 01:18 13,6 C 9,5 C 17,0 C 66 % 1023,0 hPa 0,0 l/m 3,0 km/h (1 Bft) SO 145 0 min 0 lux 0 W/m
11.05.2015 01:23 13,6 C 9,6 C 17,0 C 66 % 1023,0 hPa 0,0 l/m 7,0 km/h (2 Bft) S-SO22.5 150 0 min 0 lux 0 W/m
11.05.2015 01:28 13,9 C 9,8 C 17,0 C 66 % 1023,0 hPa 0,0 l/m 8,6 km/h (2 Bft) S-SO22.5 150 0 min 0 lux 0 W/m
11.05.2015 01:33 14,0 C 9,8 C 17,0 C 66 % 1023,0 hPa 0,0 l/m 9,4 km/h (2 Bft) SO 145 0 min 0 lux 0 W/m
11.05.2015 01:38 14,1 C 9,9 C 17,0 C 65 % 1023,0 hPa 0,0 l/m 8,3 km/h (2 Bft) S-SO22.5 160 0 min 0 lux 0 W/m
11.05.2015 01:43 14,2 C 10,1 C 16,9 C 65 % 1023,0 hPa 0,0 l/m 8,9 km/h (2 Bft) SO22.5 145 0 min 0 lux 0 W/m
11.05.2015 01:47 14,3 C 10,3 C 16,9 C 65 % 1023,0 hPa 0,0 l/m 11,0 km/h (2 Bft) S-SO22.5 150 0 min 0 lux 0 W/m
11.05.2015 01:53 14,4 C 10,3 C 16,9 C 65 % 1023,0 hPa 0,0 l/m 10,7 km/h (2 Bft) S-SO45 150 0 min 0 lux 0 W/m
11.05.2015 01:58 14,4 C 10,5 C 16,9 C 65 % 1023,0 hPa 0,0 l/m 13,3 km/h (3 Bft) S-SO22.5 150 0 min 0 lux 0 W/m
11.05.2015 02:03 14,4 C 10,6 C 16,9 C 65 % 1023,0 hPa 0,0 l/m 12,1 km/h (2 Bft) S-SO45 155 0 min 0 lux 0 W/m
11.05.2015 02:08 14,4 C 10,7 C 16,9 C 65 % 1023,0 hPa 0,0 l/m 13,5 km/h (3 Bft) S-SO22.5 155 0 min 0 lux 0 W/m
11.05.2015 02:13 14,4 C 10,9 C 16,9 C 65 % 1023,0 hPa 0,0 l/m 12,9 km/h (3 Bft) S-SO22.5 150 0 min 0 lux 0 W/m
11.05.2015 02:17 14,4 C 11,0 C 16,9 C 65 % 1023,0 hPa 0,0 l/m 13,8 km/h (3 Bft) S-SO22.5 155 0 min 0 lux 0 W/m
11.05.2015 02:23 14,4 C 11,0 C 16,9 C 65 % 1023,0 hPa 0,0 l/m 13,8 km/h (3 Bft) S-SO22.5 155 0 min 0 lux 0 W/m
11.05.2015 02:28 14,4 C 10,9 C 16,9 C 66 % 1023,0 hPa 0,0 l/m 11,1 km/h (2 Bft) S-SO22.5 160 0 min 0 lux 0 W/m
11.05.2015 02:33 14,4 C 11,0 C 16,8 C 66 % 1023,0 hPa 0,0 l/m 14,8 km/h (3 Bft) S-SO22.5 155 0 min 0 lux 0 W/m
11.05.2015 02:38 14,4 C 11,3 C 16,8 C 65 % 1023,0 hPa 0,0 l/m 15,3 km/h (3 Bft) S-SO45 150 0 min 0 lux 0 W/m
11.05.2015 02:43 14,4 C 11,3 C 16,8 C 65 % 1023,0 hPa 0,0 l/m 13,5 km/h (3 Bft) S-SO45 160 0 min 0 lux 0 W/m
11.05.2015 02:48 14,4 C 11,3 C 16,8 C 66 % 1023,0 hPa 0,0 l/m 15,4 km/h (3 Bft) S-SO45 155 0 min 0 lux 0 W/m
11.05.2015 02:52 14,3 C 11,1 C 16,8 C 66 % 1023,0 hPa 0,0 l/m 12,8 km/h (3 Bft) S-SO22.5 155 0 min 0 lux 0 W/m
11.05.2015 02:58 14,2 C 11,0 C 16,7 C 66 % 1023,0 hPa 0,0 l/m 10,4 km/h (2 Bft) S-SO22.5 150 0 min 0 lux 0 W/m
11.05.2015 03:03 14,2 C 11,0 C 16,7 C 66 % 1023,0 hPa 0,0 l/m 14,0 km/h (3 Bft) S-SO22.5 150 0 min 0 lux 0 W/m
11.05.2015 03:08 14,2 C 10,9 C 16,7 C 66 % 1023,0 hPa 0,0 l/m 9,4 km/h (2 Bft) SO 140 0 min 0 lux 0 W/m
11.05.2015 03:13 14,0 C 10,7 C 16,7 C 67 % 1023,0 hPa 0,0 l/m 10,5 km/h (2 Bft) S-SO22.5 150 0 min 0 lux 0 W/m
11.05.2015 03:18 14,0 C 10,8 C 16,7 C 67 % 1023,0 hPa 0,0 l/m 11,1 km/h (2 Bft) S-SO45 150 0 min 0 lux 0 W/m
11.05.2015 03:23 14,0 C 10,7 C 16,7 C 67 % 1023,0 hPa 0,0 l/m 11,3 km/h (2 Bft) S-SO45 150 0 min 0 lux 0 W/m
11.05.2015 03:28 14,0 C 10,7 C 16,7 C 67 % 1023,0 hPa 0,0 l/m 10,1 km/h (2 Bft) SO22.5 140 0 min 0 lux 0 W/m
11.05.2015 03:33 14,0 C 10,7 C 16,7 C 67 % 1023,0 hPa 0,0 l/m 5,6 km/h (2 Bft) SO 135 0 min 0 lux 0 W/m
11.05.2015 03:38 14,0 C 10,7 C 16,7 C 67 % 1023,0 hPa 0,0 l/m 8,2 km/h (2 Bft) SO22.5 140 0 min 0 lux 0 W/m
11.05.2015 03:43 13,9 C 10,7 C 16,7 C 67 % 1023,0 hPa 0,0 l/m 0,8 km/h (0 Bft) SO22.5 145 0 min 0 lux 0 W/m
11.05.2015 03:48 13,8 C 10,6 C 16,7 C 67 % 1023,0 hPa 0,0 l/m 0,3 km/h (0 Bft) SO 135 0 min 0 lux 0 W/m
11.05.2015 03:53 13,8 C 10,6 C 16,7 C 67 % 1023,0 hPa 0,0 l/m 7,3 km/h (2 Bft) SO22.5 125 0 min 0 lux 0 W/m
11.05.2015 03:57 13,7 C 10,6 C 16,7 C 67 % 1023,0 hPa 0,0 l/m 7,6 km/h (2 Bft) O-SO22.5 115 0 min 0 lux 0 W/m
11.05.2015 04:03 13,6 C 10,6 C 16,7 C 68 % 1023,0 hPa 0,0 l/m 7,9 km/h (2 Bft) O-SO22.5 115 0 min 0 lux 0 W/m
11.05.2015 04:08 13,6 C 10,5 C 16,6 C 68 % 1023,0 hPa 0,0 l/m 8,3 km/h (2 Bft) O-SO45 120 0 min 0 lux 0 W/m
11.05.2015 04:13 13,4 C 10,3 C 16,6 C 68 % 1023,0 hPa 0,0 l/m 1,3 km/h (1 Bft) SO22.5 140 0 min 0 lux 0 W/m
11.05.2015 04:18 13,4 C 10,1 C 16,7 C 69 % 1023,0 hPa 0,0 l/m 4,5 km/h (1 Bft) SO 140 0 min 0 lux 0 W/m
11.05.2015 04:22 13,4 C 10,1 C 16,6 C 68 % 1023,0 hPa 0,0 l/m 5,9 km/h (2 Bft) SO22.5 130 0 min 0 lux 0 W/m
11.05.2015 04:28 13,6 C 10,1 C 16,6 C 68 % 1023,0 hPa 0,0 l/m 12,8 km/h (3 Bft) S-SO22.5 155 0 min 0 lux 0 W/m
11.05.2015 04:33 13,6 C 10,2 C 16,6 C 67 % 1023,0 hPa 0,0 l/m 7,9 km/h (2 Bft) SO22.5 135 0 min 0 lux 0 W/m
11.05.2015 04:38 13,6 C 10,1 C 16,6 C 67 % 1023,0 hPa 0,0 l/m 13,1 km/h (3 Bft) O-SO67.5 115 0 min 0 lux 0 W/m
11.05.2015 04:43 13,7 C 10,1 C 16,6 C 67 % 1023,0 hPa 0,0 l/m 11,3 km/h (2 Bft) SO22.5 135 0 min 0 lux 0 W/m
11.05.2015 04:48 13,7 C 10,3 C 16,6 C 66 % 1023,0 hPa 0,0 l/m 11,4 km/h (2 Bft) SO45 140 0 min 0 lux 0 W/m
11.05.2015 04:53 13,7 C 10,3 C 16,5 C 66 % 1023,0 hPa 0,0 l/m 10,7 km/h (2 Bft) SO22.5 125 0 min 0 lux 0 W/m
11.05.2015 04:57 13,6 C 10,3 C 16,6 C 66 % 1023,0 hPa 0,0 l/m 1,0 km/h (0 Bft) SO22.5 130 0 min 0 lux 0 W/m
11.05.2015 05:03 13,6 C 10,4 C 16,5 C 66 % 1022,0 hPa 0,0 l/m 9,8 km/h (2 Bft) SO45 140 0 min 0 lux 0 W/m
11.05.2015 05:08 13,7 C 10,6 C 16,5 C 66 % 1022,0 hPa 0,0 l/m 15,0 km/h (3 Bft) S-SO45 150 0 min 0 lux 0 W/m
11.05.2015 05:13 13,7 C 10,7 C 16,5 C 66 % 1023,0 hPa 0,0 l/m 12,1 km/h (2 Bft) S-SO45 160 0 min 0 lux 0 W/m
11.05.2015 05:18 13,8 C 10,8 C 16,5 C 66 % 1023,0 hPa 0,0 l/m 14,3 km/h (3 Bft) S-SO22.5 160 0 min 0 lux 0 W/m
11.05.2015 05:23 13,8 C 11,0 C 16,5 C 65 % 1023,0 hPa 0,0 l/m 15,9 km/h (3 Bft) S-SO22.5 155 0 min 0 lux 0 W/m
11.05.2015 05:28 13,8 C 11,0 C 16,5 C 65 % 1023,0 hPa 0,0 l/m 15,9 km/h (3 Bft) S-SO22.5 155 0 min 0 lux 0 W/m
11.05.2015 05:33 13,8 C 11,1 C 16,5 C 65 % 1023,0 hPa 0,0 l/m 11,6 km/h (2 Bft) S-SO22.5 165 0 min 32 lux 0 W/m
11.05.2015 05:38 13,7 C 11,1 C 16,4 C 66 % 1023,0 hPa 0,0 l/m 14,9 km/h (3 Bft) S-SO22.5 160 0 min 182 lux 0 W/m
11.05.2015 05:43 13,8 C 11,1 C 16,4 C 66 % 1023,0 hPa 0,0 l/m 13,1 km/h (3 Bft) S-SO45 150 0 min 141 lux 0 W/m
11.05.2015 05:48 13,8 C 11,3 C 16,4 C 65 % 1022,0 hPa 0,0 l/m 18,5 km/h (3 Bft) S-SO22.5 155 0 min 180 lux 0 W/m
11.05.2015 05:53 13,9 C 11,4 C 16,4 C 65 % 1022,0 hPa 0,0 l/m 18,0 km/h (3 Bft) S-SO22.5 160 0 min 290 lux 0 W/m
11.05.2015 05:58 13,8 C 11,4 C 16,4 C 65 % 1022,0 hPa 0,0 l/m 21,3 km/h (4 Bft) S-SO45 160 0 min 453 lux 3 W/m
11.05.2015 06:03 13,9 C 11,4 C 16,4 C 65 % 1022,0 hPa 0,0 l/m 15,0 km/h (3 Bft) S-SO22.5 155 0 min 661 lux 5 W/m
11.05.2015 06:08 13,8 C 11,4 C 16,4 C 65 % 1022,0 hPa 0,0 l/m 13,6 km/h (3 Bft) S-SO45 155 0 min 943 lux 6 W/m
11.05.2015 06:13 13,8 C 11,5 C 16,4 C 65 % 1022,0 hPa 0,0 l/m 16,5 km/h (3 Bft) S-SO22.5 160 0 min 1,36 klux 9 W/m
11.05.2015 06:18 13,8 C 11,6 C 16,4 C 65 % 1022,0 hPa 0,0 l/m 21,4 km/h (4 Bft) S-SO22.5 160 0 min 1,94 klux 13 W/m
11.05.2015 06:23 13,9 C 11,8 C 16,3 C 65 % 1022,0 hPa 0,0 l/m 15,4 km/h (3 Bft) S45 170 0 min 2,30 klux 16 W/m
11.05.2015 06:27 14,0 C 12,2 C 16,3 C 65 % 1022,0 hPa 0,0 l/m 16,0 km/h (3 Bft) S22.5 170 0 min 3,28 klux 22 W/m
11.05.2015 06:33 14,0 C 12,5 C 16,3 C 65 % 1022,0 hPa 0,0 l/m 15,6 km/h (3 Bft) S-SO22.5 155 0 min 3,61 klux 25 W/m
11.05.2015 06:38 14,0 C 12,6 C 16,3 C 65 % 1022,0 hPa 0,0 l/m 15,6 km/h (3 Bft) S-SO22.5 155 0 min 4,18 klux 29 W/m
11.05.2015 06:43 14,0 C 12,8 C 16,3 C 65 % 1022,0 hPa 0,0 l/m 13,0 km/h (3 Bft) S-SO22.5 160 0 min 4,65 klux 32 W/m
11.05.2015 06:48 14,0 C 13,2 C 16,3 C 65 % 1022,0 hPa 0,0 l/m 15,8 km/h (3 Bft) SO22.5 140 0 min 5,86 klux 40 W/m
11.05.2015 06:53 14,0 C 13,4 C 16,3 C 65 % 1022,0 hPa 0,0 l/m 7,4 km/h (2 Bft) SO45 135 0 min 7,03 klux 48 W/m
11.05.2015 06:58 14,0 C 13,5 C 16,3 C 65 % 1022,0 hPa 0,0 l/m 12,6 km/h (3 Bft) SO22.5 145 0 min 1,55 klux 11 W/m
11.05.2015 07:02 14,1 C 13,9 C 16,3 C 65 % 1022,0 hPa 0,0 l/m 13,8 km/h (3 Bft) SO45 140 0 min 6,43 klux 44 W/m
11.05.2015 07:08 14,1 C 14,0 C 16,3 C 65 % 1022,0 hPa 0,0 l/m 11,1 km/h (2 Bft) S-SO45 150 0 min 6,30 klux 43 W/m
11.05.2015 07:13 14,2 C 13,9 C 16,3 C 65 % 1022,0 hPa 0,0 l/m 14,7 km/h (3 Bft) S-SO22.5 155 0 min 6,47 klux 44 W/m
11.05.2015 07:18 14,3 C 14,0 C 16,3 C 64 % 1022,0 hPa 0,0 l/m 18,0 km/h (3 Bft) S-SO22.5 150 0 min 7,08 klux 48 W/m
11.05.2015 07:23 14,3 C 14,0 C 16,3 C 64 % 1022,0 hPa 0,0 l/m 17,0 km/h (3 Bft) S-SO45 155 0 min 7,84 klux 54 W/m
11.05.2015 07:28 14,3 C 14,1 C 16,2 C 64 % 1022,0 hPa 0,0 l/m 14,3 km/h (3 Bft) S-SO22.5 160 0 min 9,4 klux 64 W/m
11.05.2015 07:33 14,3 C 14,4 C 16,2 C 65 % 1022,0 hPa 0,0 l/m 9,5 km/h (2 Bft) S-SO22.5 160 0 min 10,2 klux 70 W/m
11.05.2015 07:38 14,4 C 14,8 C 16,2 C 65 % 1022,0 hPa 0,0 l/m 11,4 km/h (2 Bft) SO22.5 145 0 min 11,1 klux 76 W/m
11.05.2015 07:43 14,4 C 15,0 C 16,2 C 65 % 1022,0 hPa 0,0 l/m 12,5 km/h (2 Bft) SO22.5 130 0 min 14,1 klux 96 W/m
11.05.2015 07:48 14,5 C 15,4 C 16,3 C 64 % 1022,0 hPa 0,0 l/m 12,5 km/h (2 Bft) S-SO45 155 0 min 15,1 klux 103 W/m
11.05.2015 07:53 14,6 C 16,0 C 16,3 C 63 % 1022,0 hPa 0,0 l/m 16,0 km/h (3 Bft) S-SO22.5 160 0 min 17,2 klux 118 W/m
11.05.2015 07:58 14,6 C 16,5 C 16,3 C 63 % 1022,0 hPa 0,0 l/m 13,9 km/h (3 Bft) S-SO45 155 0 min 21,3 klux 146 W/m
11.05.2015 08:03 14,6 C 17,8 C 16,3 C 63 % 1022,0 hPa 0,0 l/m 13,1 km/h (3 Bft) SO22.5 145 5 min 27,8 klux 190 W/m
11.05.2015 08:08 14,6 C 19,1 C 16,3 C 63 % 1022,0 hPa 0,0 l/m 13,5 km/h (3 Bft) S-SO45 150 5 min 27,8 klux 190 W/m
11.05.2015 08:13 15,5 C 19,6 C 16,3 C 62 % 1021,9 hPa 0,0 l/m 14,1 km/h (3 Bft) S-SO22.5 155 0 min 22,2 klux 152 W/m
11.05.2015 08:18 15,6 C 19,8 C 16,3 C 62 % 1021,9 hPa 0,0 l/m 15,3 km/h (3 Bft) S-SO45 165 0 min 24,3 klux 166 W/m
11.05.2015 08:23 15,8 C 20,5 C 16,3 C 61 % 1021,9 hPa 0,0 l/m 17,5 km/h (3 Bft) S-SO22.5 150 5 min 30,3 klux 207 W/m
11.05.2015 08:28 16,0 C 21,8 C 16,3 C 61 % 1021,9 hPa 0,0 l/m 16,3 km/h (3 Bft) S-SO22.5 150 0 min 28,9 klux 198 W/m
11.05.2015 08:32 16,0 C 22,1 C 16,3 C 61 % 1021,9 hPa 0,0 l/m 16,8 km/h (3 Bft) S22.5 170 0 min 26,5 klux 181 W/m
11.05.2015 08:38 16,2 C 22,4 C 16,4 C 60 % 1021,9 hPa 0,0 l/m 18,4 km/h (3 Bft) S-SO22.5 160 0 min 28,8 klux 197 W/m
11.05.2015 08:43 16,2 C 22,5 C 16,3 C 60 % 1021,9 hPa 0,0 l/m 16,7 km/h (3 Bft) S-SO22.5 160 0 min 26,3 klux 180 W/m
11.05.2015 08:48 16,5 C 23,2 C 16,4 C 60 % 1021,9 hPa 0,0 l/m 15,0 km/h (3 Bft) S-SO22.5 160 5 min 36,3 klux 248 W/m
11.05.2015 08:53 16,5 C 24,3 C 16,4 C 60 % 1021,9 hPa 0,0 l/m 19,6 km/h (3 Bft) S-SO45 160 0 min 31,0 klux 212 W/m
11.05.2015 08:58 16,9 C 24,7 C 16,4 C 59 % 1021,9 hPa 0,0 l/m 16,0 km/h (3 Bft) S-SO45 165 0 min 33,2 klux 227 W/m
11.05.2015 09:03 17,0 C 24,9 C 16,4 C 59 % 1021,9 hPa 0,0 l/m 17,8 km/h (3 Bft) S22.5 170 5 min 37,8 klux 259 W/m
11.05.2015 09:08 17,2 C 25,4 C 16,5 C 59 % 1021,9 hPa 0,0 l/m 17,8 km/h (3 Bft) S-SO22.5 160 5 min 46,3 klux 317 W/m
11.05.2015 09:13 17,5 C 26,9 C 16,5 C 57 % 1021,9 hPa 0,0 l/m 24,0 km/h (4 Bft) S-SO22.5 160 5 min 44,8 klux 306 W/m
11.05.2015 09:18 17,4 C 27,5 C 16,5 C 57 % 1021,9 hPa 0,0 l/m 23,3 km/h (4 Bft) S-SO22.5 165 0 min 38,6 klux 264 W/m
11.05.2015 09:23 17,7 C 27,3 C 16,5 C 57 % 1021,9 hPa 0,0 l/m 21,7 km/h (4 Bft) S-SO22.5 160 0 min 38,0 klux 260 W/m
11.05.2015 09:28 17,8 C 28,0 C 16,5 C 57 % 1021,9 hPa 0,0 l/m 19,1 km/h (3 Bft) S-SO22.5 165 5 min 43,7 klux 299 W/m
11.05.2015 09:32 18,1 C 29,3 C 16,6 C 57 % 1021,9 hPa 0,0 l/m 17,8 km/h (3 Bft) S-SO22.5 165 4 min 43,7 klux 299 W/m
11.05.2015 09:38 18,2 C 30,1 C 16,6 C 57 % 1021,9 hPa 0,0 l/m 20,0 km/h (4 Bft) S-SO22.5 160 0 min 38,9 klux 266 W/m
11.05.2015 09:43 18,4 C 30,6 C 16,6 C 56 % 1021,9 hPa 0,0 l/m 21,3 km/h (4 Bft) S45 175 5 min 48,8 klux 334 W/m
11.05.2015 09:48 18,4 C 31,6 C 16,7 C 56 % 1021,9 hPa 0,0 l/m 20,0 km/h (4 Bft) S22.5 170 5 min 49,3 klux 337 W/m
11.05.2015 09:53 18,7 C 31,6 C 16,7 C 56 % 1021,9 hPa 0,0 l/m 18,8 km/h (3 Bft) S22.5 175 0 min 44,0 klux 301 W/m
11.05.2015 09:58 18,8 C 31,3 C 16,7 C 56 % 1021,9 hPa 0,0 l/m 18,8 km/h (3 Bft) S22.5 175 5 min 54,4 klux 372 W/m
11.05.2015 10:03 19,2 C 32,3 C 16,7 C 55 % 1021,9 hPa 0,0 l/m 14,4 km/h (3 Bft) S-SO45 160 5 min 51,5 klux 352 W/m
11.05.2015 10:08 19,3 C 33,6 C 16,8 C 54 % 1021,9 hPa 0,0 l/m 27,9 km/h (5 Bft) S-SO45 160 5 min 56,8 klux 389 W/m
11.05.2015 10:13 19,3 C 33,7 C 16,9 C 53 % 1021,9 hPa 0,0 l/m 21,3 km/h (4 Bft) S-SO45 155 5 min 49,2 klux 337 W/m
11.05.2015 10:18 19,3 C 33,7 C 16,9 C 54 % 1021,9 hPa 0,0 l/m 22,2 km/h (4 Bft) S22.5 170 0 min 49,0 klux 335 W/m
11.05.2015 10:23 19,4 C 33,5 C 16,9 C 54 % 1021,9 hPa 0,0 l/m 21,3 km/h (4 Bft) S-SO67.5 150 5 min 54,9 klux 376 W/m
11.05.2015 10:28 19,4 C 33,3 C 17,0 C 54 % 1021,9 hPa 0,0 l/m 21,2 km/h (4 Bft) S-SO45 160 0 min 47,9 klux 328 W/m
11.05.2015 10:32 19,7 C 34,6 C 17,0 C 54 % 1021,9 hPa 0,0 l/m 18,1 km/h (3 Bft) S-SO45 160 0 min 47,9 klux 328 W/m
11.05.2015 10:38 20,0 C 36,3 C 17,0 C 53 % 1021,9 hPa 0,0 l/m 17,4 km/h (3 Bft) S-SO22.5 155 6 min 62,0 klux 424 W/m
11.05.2015 10:43 20,3 C 37,0 C 17,1 C 53 % 1021,9 hPa 0,0 l/m 18,7 km/h (3 Bft) S22.5 170 5 min 56,9 klux 389 W/m
11.05.2015 10:48 20,4 C 37,1 C 17,1 C 52 % 1021,9 hPa 0,0 l/m 18,3 km/h (3 Bft) S-SO45 165 0 min 52,9 klux 362 W/m
11.05.2015 10:53 20,5 C 36,7 C 17,2 C 52 % 1020,9 hPa 0,0 l/m 15,3 km/h (3 Bft) S45 170 5 min 59,5 klux 407 W/m
11.05.2015 10:58 20,4 C 37,6 C 17,2 C 53 % 1020,9 hPa 0,0 l/m 22,0 km/h (4 Bft) S-SO22.5 155 5 min 64,2 klux 439 W/m
11.05.2015 11:03 20,8 C 38,1 C 17,3 C 52 % 1020,9 hPa 0,0 l/m 21,7 km/h (4 Bft) S22.5 185 5 min 63,7 klux 436 W/m
11.05.2015 11:08 21,1 C 38,9 C 17,3 C 51 % 1020,8 hPa 0,0 l/m 20,3 km/h (4 Bft) S45 175 5 min 62,7 klux 429 W/m
11.05.2015 11:13 21,1 C 39,3 C 17,4 C 51 % 1020,8 hPa 0,0 l/m 21,9 km/h (4 Bft) S-SO45 160 5 min 68,5 klux 469 W/m
11.05.2015 11:18 21,1 C 39,3 C 17,5 C 51 % 1020,8 hPa 0,0 l/m 24,3 km/h (4 Bft) S22.5 170 5 min 62,4 klux 427 W/m
11.05.2015 11:23 21,3 C 39,0 C 17,5 C 50 % 1020,8 hPa 0,0 l/m 19,4 km/h (3 Bft) S22.5 180 0 min 55,4 klux 379 W/m
11.05.2015 11:27 21,4 C 38,2 C 17,6 C 50 % 1020,8 hPa 0,0 l/m 18,1 km/h (3 Bft) S45 180 0 min 49,2 klux 337 W/m
11.05.2015 11:33 21,4 C 36,5 C 17,7 C 51 % 1020,8 hPa 0,0 l/m 15,8 km/h (3 Bft) S45 185 0 min 38,3 klux 262 W/m
11.05.2015 11:38 21,3 C 35,6 C 17,7 C 50 % 1020,8 hPa 0,0 l/m 21,5 km/h (4 Bft) S22.5 170 0 min 49,5 klux 339 W/m
11.05.2015 11:43 21,2 C 35,3 C 17,7 C 51 % 1020,8 hPa 0,0 l/m 17,5 km/h (3 Bft) S45 170 0 min 41,4 klux 283 W/m
11.05.2015 11:48 21,2 C 34,7 C 17,8 C 51 % 1020,8 hPa 0,0 l/m 17,9 km/h (3 Bft) S22.5 170 0 min 45,5 klux 311 W/m
11.05.2015 11:53 21,3 C 34,7 C 17,8 C 52 % 1020,8 hPa 0,0 l/m 18,3 km/h (3 Bft) S22.5 170 0 min 40,0 klux 274 W/m
11.05.2015 11:58 21,3 C 34,1 C 17,9 C 51 % 1020,8 hPa 0,0 l/m 17,5 km/h (3 Bft) S22.5 175 0 min 38,6 klux 264 W/m
11.05.2015 12:03 21,5 C 35,6 C 17,9 C 51 % 1020,8 hPa 0,0 l/m 18,6 km/h (3 Bft) S45 180 5 min 72,1 klux 493 W/m
11.05.2015 12:08 21,5 C 38,6 C 18,0 C 51 % 1020,8 hPa 0,0 l/m 20,0 km/h (4 Bft) S45 190 5 min 70,7 klux 484 W/m
11.05.2015 12:13 22,2 C 39,8 C 18,0 C 49 % 1020,8 hPa 0,0 l/m 17,8 km/h (3 Bft) S45 180 5 min 64,6 klux 442 W/m
11.05.2015 12:18 22,3 C 41,1 C 18,0 C 50 % 1020,8 hPa 0,0 l/m 15,6 km/h (3 Bft) S-SO22.5 150 0 min 54,8 klux 375 W/m
11.05.2015 12:22 22,3 C 41,5 C 18,1 C 50 % 1020,8 hPa 0,0 l/m 17,8 km/h (3 Bft) S-SO45 165 4 min 65,6 klux 449 W/m
11.05.2015 12:28 22,6 C 41,8 C 18,1 C 49 % 1020,8 hPa 0,0 l/m 20,0 km/h (4 Bft) S-SO45 160 6 min 66,5 klux 455 W/m
11.05.2015 12:33 22,6 C 42,2 C 18,2 C 50 % 1020,8 hPa 0,0 l/m 15,6 km/h (3 Bft) S-SO45 160 0 min 56,2 klux 384 W/m
11.05.2015 12:38 22,8 C 42,6 C 18,3 C 50 % 1020,8 hPa 0,0 l/m 18,5 km/h (3 Bft) S-SO67.5 160 0 min 56,2 klux 384 W/m
11.05.2015 12:43 22,8 C 43,1 C 18,3 C 50 % 1020,8 hPa 0,0 l/m 16,5 km/h (3 Bft) SO45 145 0 min 62,2 klux 425 W/m
11.05.2015 12:48 23,3 C 43,8 C 18,4 C 50 % 1020,8 hPa 0,0 l/m 10,7 km/h (2 Bft) SO67.5 145 0 min 52,5 klux 359 W/m
11.05.2015 12:53 23,3 C 43,6 C 18,4 C 49 % 1019,8 hPa 0,0 l/m 14,6 km/h (3 Bft) S-SO67.5 155 0 min 60,7 klux 415 W/m
11.05.2015 12:57 23,3 C 44,2 C 18,5 C 48 % 1019,8 hPa 0,0 l/m 17,1 km/h (3 Bft) S-SO22.5 160 0 min 60,7 klux 415 W/m
11.05.2015 13:03 23,4 C 43,5 C 18,5 C 49 % 1019,8 hPa 0,0 l/m 13,8 km/h (3 Bft) S-SO45 160 0 min 50,2 klux 343 W/m
11.05.2015 13:08 23,4 C 42,7 C 18,6 C 48 % 1019,8 hPa 0,0 l/m 17,2 km/h (3 Bft) S-SO22.5 150 5 min 72,2 klux 494 W/m
11.05.2015 13:13 23,6 C 43,2 C 18,6 C 48 % 1019,8 hPa 0,0 l/m 15,6 km/h (3 Bft) S-SO22.5 160 0 min 54,9 klux 376 W/m
11.05.2015 13:18 23,8 C 42,8 C 18,7 C 48 % 1019,8 hPa 0,0 l/m 17,4 km/h (3 Bft) S-SO45 165 0 min 47,0 klux 321 W/m
11.05.2015 13:22 23,8 C 40,7 C 18,8 C 48 % 1019,8 hPa 0,0 l/m 13,2 km/h (3 Bft) S45 180 0 min 43,5 klux 298 W/m
11.05.2015 13:28 23,8 C 40,0 C 18,8 C 47 % 1019,8 hPa 0,0 l/m 14,2 km/h (3 Bft) S22.5 170 0 min 53,6 klux 367 W/m
11.05.2015 13:33 23,8 C 40,0 C 18,9 C 48 % 1019,8 hPa 0,0 l/m 12,7 km/h (3 Bft) S-SO22.5 165 0 min 45,0 klux 308 W/m
11.05.2015 13:38 23,9 C 39,5 C 19,0 C 48 % 1019,8 hPa 0,0 l/m 13,1 km/h (3 Bft) S-SO22.5 160 0 min 46,3 klux 317 W/m
11.05.2015 13:43 24,0 C 39,6 C 19,0 C 47 % 1019,8 hPa 0,0 l/m 11,2 km/h (2 Bft) S22.5 185 0 min 45,1 klux 308 W/m
11.05.2015 13:48 24,2 C 39,6 C 19,0 C 47 % 1019,8 hPa 0,0 l/m 16,3 km/h (3 Bft) S22.5 170 0 min 51,3 klux 351 W/m
11.05.2015 13:52 24,1 C 40,0 C 19,1 C 45 % 1019,8 hPa 0,0 l/m 15,6 km/h (3 Bft) S-SO45 160 0 min 50,1 klux 343 W/m
11.05.2015 13:58 24,1 C 43,2 C 19,2 C 45 % 1019,8 hPa 0,0 l/m 12,6 km/h (3 Bft) S-SO45 160 6 min 82,6 klux 565 W/m
11.05.2015 14:03 24,8 C 47,8 C 19,2 C 43 % 1019,8 hPa 0,0 l/m 18,8 km/h (3 Bft) S-SO22.5 155 5 min 87,3 klux 597 W/m
11.05.2015 14:08 25,1 C 49,7 C 19,2 C 43 % 1019,8 hPa 0,0 l/m 19,8 km/h (3 Bft) S45 170 5 min 85,0 klux 581 W/m
11.05.2015 14:13 25,9 C 52,1 C 19,4 C 41 % 1019,8 hPa 0,0 l/m 10,5 km/h (2 Bft) S-SO22.5 160 5 min 79,8 klux 546 W/m
11.05.2015 14:17 25,9 C 50,6 C 19,4 C 41 % 1019,8 hPa 0,0 l/m 20,4 km/h (4 Bft) S-SO22.5 165 4 min 73,3 klux 501 W/m
11.05.2015 14:23 25,7 C 49,5 C 19,5 C 41 % 1019,8 hPa 0,0 l/m 18,5 km/h (3 Bft) S22.5 170 0 min 56,0 klux 383 W/m
11.05.2015 14:28 25,9 C 47,2 C 19,6 C 42 % 1019,8 hPa 0,0 l/m 10,8 km/h (2 Bft) SW22.5 215 0 min 56,4 klux 386 W/m
11.05.2015 14:33 25,9 C 45,5 C 19,6 C 42 % 1019,8 hPa 0,0 l/m 15,6 km/h (3 Bft) S-SO45 160 0 min 43,7 klux 299 W/m
11.05.2015 14:38 25,8 C 42,5 C 19,7 C 41 % 1019,8 hPa 0,0 l/m 20,9 km/h (4 Bft) S-SW22.5 195 0 min 51,9 klux 355 W/m
11.05.2015 14:43 25,5 C 40,9 C 19,7 C 43 % 1019,8 hPa 0,0 l/m 21,3 km/h (4 Bft) S-SW22.5 210 0 min 58,2 klux 398 W/m
11.05.2015 14:48 25,3 C 39,7 C 19,8 C 43 % 1018,8 hPa 0,0 l/m 17,4 km/h (3 Bft) S-SW67.5 195 0 min 58,0 klux 397 W/m
11.05.2015 14:52 25,5 C 40,7 C 19,8 C 40 % 1018,8 hPa 0,0 l/m 17,5 km/h (3 Bft) S22.5 180 4 min 68,1 klux 466 W/m
11.05.2015 14:58 25,7 C 42,0 C 19,9 C 40 % 1018,8 hPa 0,0 l/m 22,8 km/h (4 Bft) S45 180 6 min 72,0 klux 492 W/m
11.05.2015 15:03 25,7 C 43,5 C 20,0 C 40 % 1018,8 hPa 0,0 l/m 18,8 km/h (3 Bft) S22.5 190 5 min 70,0 klux 479 W/m
11.05.2015 15:08 26,2 C 44,0 C 20,0 C 40 % 1018,8 hPa 0,0 l/m 24,5 km/h (4 Bft) S67.5 180 5 min 71,7 klux 490 W/m
11.05.2015 15:13 26,2 C 44,9 C 20,1 C 40 % 1018,8 hPa 0,0 l/m 21,3 km/h (4 Bft) S45 180 5 min 75,8 klux 518 W/m
11.05.2015 15:18 26,8 C 46,6 C 20,2 C 40 % 1018,7 hPa 0,0 l/m 14,3 km/h (3 Bft) S45 190 5 min 77,5 klux 530 W/m
11.05.2015 15:23 26,9 C 47,9 C 20,3 C 39 % 1018,7 hPa 0,0 l/m 18,0 km/h (3 Bft) S22.5 175 5 min 75,0 klux 513 W/m
11.05.2015 15:28 27,0 C 47,3 C 20,4 C 39 % 1018,7 hPa 0,0 l/m 19,0 km/h (3 Bft) S45 185 5 min 75,0 klux 513 W/m
11.05.2015 15:33 26,7 C 43,8 C 20,4 C 40 % 1018,7 hPa 0,0 l/m 15,6 km/h (3 Bft) S22.5 190 0 min 40,9 klux 280 W/m
11.05.2015 15:38 26,5 C 42,8 C 20,5 C 40 % 1018,8 hPa 0,0 l/m 20,8 km/h (4 Bft) S-SW45 205 5 min 71,1 klux 486 W/m
11.05.2015 15:43 26,5 C 41,8 C 20,6 C 42 % 1018,8 hPa 0,0 l/m 20,8 km/h (4 Bft) SW45 220 5 min 60,1 klux 411 W/m
11.05.2015 15:47 26,5 C 41,9 C 20,7 C 42 % 1018,8 hPa 0,0 l/m 16,4 km/h (3 Bft) SW45 215 0 min 32,3 klux 221 W/m
11.05.2015 15:53 26,8 C 40,6 C 20,7 C 44 % 1018,7 hPa 0,0 l/m 13,5 km/h (3 Bft) S-SW45 195 6 min 67,7 klux 463 W/m
11.05.2015 15:58 26,8 C 42,4 C 20,8 C 39 % 1018,7 hPa 0,0 l/m 25,5 km/h (4 Bft) S45 180 5 min 63,5 klux 434 W/m
11.05.2015 16:03 26,9 C 42,7 C 21,0 C 39 % 1018,7 hPa 0,0 l/m 21,9 km/h (4 Bft) S-SW22.5 195 5 min 69,0 klux 472 W/m
11.05.2015 16:08 27,0 C 42,3 C 21,0 C 40 % 1018,7 hPa 0,0 l/m 23,9 km/h (4 Bft) S-SW22.5 210 0 min 51,0 klux 349 W/m
11.05.2015 16:12 27,2 C 44,1 C 21,2 C 38 % 1018,7 hPa 0,0 l/m 18,7 km/h (3 Bft) S45 175 4 min 68,5 klux 469 W/m
11.05.2015 16:18 27,3 C 41,9 C 21,3 C 39 % 1018,7 hPa 0,0 l/m 21,3 km/h (4 Bft) S-SW45 200 6 min 68,7 klux 470 W/m
11.05.2015 16:23 27,7 C 42,7 C 21,3 C 38 % 1018,7 hPa 0,0 l/m 19,5 km/h (3 Bft) SW22.5 220 5 min 69,4 klux 475 W/m
11.05.2015 16:28 27,9 C 44,1 C 21,4 C 38 % 1017,7 hPa 0,0 l/m 14,7 km/h (3 Bft) S22.5 185 5 min 64,6 klux 442 W/m
11.05.2015 16:33 28,1 C 46,0 C 21,5 C 37 % 1017,7 hPa 0,0 l/m 17,4 km/h (3 Bft) S45 190 5 min 62,6 klux 428 W/m
11.05.2015 16:38 28,1 C 46,1 C 21,7 C 37 % 1017,7 hPa 0,0 l/m 20,4 km/h (4 Bft) S-SO45 165 5 min 61,6 klux 421 W/m
11.05.2015 16:42 28,0 C 45,4 C 21,8 C 37 % 1017,7 hPa 0,0 l/m 19,3 km/h (3 Bft) S22.5 175 4 min 56,8 klux 389 W/m
11.05.2015 16:48 28,0 C 44,2 C 21,9 C 36 % 1017,7 hPa 0,0 l/m 17,2 km/h (3 Bft) S45 185 6 min 56,6 klux 387 W/m
11.05.2015 16:53 28,0 C 44,4 C 22,0 C 37 % 1017,7 hPa 0,0 l/m 17,2 km/h (3 Bft) S22.5 185 5 min 57,2 klux 391 W/m
11.05.2015 16:58 28,2 C 45,0 C 22,1 C 38 % 1017,7 hPa 0,0 l/m 20,8 km/h (4 Bft) S-SO22.5 160 5 min 57,8 klux 395 W/m
11.05.2015 17:03 28,0 C 44,5 C 22,2 C 37 % 1017,7 hPa 0,0 l/m 18,6 km/h (3 Bft) S22.5 170 0 min 41,7 klux 285 W/m
11.05.2015 17:07 27,9 C 42,5 C 22,2 C 38 % 1017,7 hPa 0,0 l/m 16,5 km/h (3 Bft) S22.5 175 0 min 35,8 klux 245 W/m
11.05.2015 17:13 27,3 C 38,9 C 22,3 C 38 % 1017,7 hPa 0,0 l/m 18,0 km/h (3 Bft) S45 180 0 min 26,4 klux 181 W/m
11.05.2015 17:18 27,2 C 37,4 C 22,4 C 38 % 1017,7 hPa 0,0 l/m 16,1 km/h (3 Bft) S-SW22.5 195 0 min 32,6 klux 223 W/m
11.05.2015 17:23 27,2 C 35,6 C 22,3 C 37 % 1017,7 hPa 0,0 l/m 17,7 km/h (3 Bft) S22.5 185 0 min 32,0 klux 219 W/m
11.05.2015 17:28 27,3 C 36,9 C 22,4 C 37 % 1017,7 hPa 0,0 l/m 20,5 km/h (4 Bft) S22.5 185 5 min 55,1 klux 377 W/m
11.05.2015 17:33 27,3 C 38,3 C 22,4 C 37 % 1017,7 hPa 0,0 l/m 13,0 km/h (3 Bft) S-SW45 195 5 min 46,1 klux 315 W/m
11.05.2015 17:38 27,3 C 36,0 C 22,5 C 37 % 1017,7 hPa 0,0 l/m 20,8 km/h (4 Bft) SW22.5 215 0 min 28,9 klux 198 W/m
11.05.2015 17:43 27,2 C 35,5 C 22,5 C 36 % 1017,7 hPa 0,0 l/m 20,3 km/h (4 Bft) S45 190 5 min 41,1 klux 281 W/m
11.05.2015 17:48 27,4 C 36,2 C 22,5 C 38 % 1017,7 hPa 0,0 l/m 15,8 km/h (3 Bft) S-SW45 195 5 min 40,1 klux 274 W/m
11.05.2015 17:53 27,5 C 36,5 C 22,5 C 37 % 1017,7 hPa 0,0 l/m 15,1 km/h (3 Bft) S-SW22.5 210 0 min 34,9 klux 239 W/m
11.05.2015 17:58 27,5 C 36,0 C 22,5 C 34 % 1017,7 hPa 0,0 l/m 16,3 km/h (3 Bft) SW22.5 215 0 min 33,0 klux 226 W/m
11.05.2015 18:03 27,6 C 35,7 C 22,5 C 35 % 1017,7 hPa 0,0 l/m 17,0 km/h (3 Bft) S-SW22.5 210 0 min 35,5 klux 243 W/m
11.05.2015 18:08 27,6 C 36,1 C 22,6 C 32 % 1017,7 hPa 0,0 l/m 19,3 km/h (3 Bft) SW22.5 215 5 min 44,7 klux 306 W/m
11.05.2015 18:13 27,7 C 35,3 C 22,5 C 32 % 1017,7 hPa 0,0 l/m 17,8 km/h (3 Bft) S-SW22.5 210 5 min 37,2 klux 254 W/m
11.05.2015 18:18 27,7 C 35,5 C 22,5 C 32 % 1017,7 hPa 0,0 l/m 16,4 km/h (3 Bft) S-SW22.5 210 5 min 39,2 klux 268 W/m
11.05.2015 18:23 27,6 C 35,2 C 22,5 C 34 % 1017,7 hPa 0,0 l/m 19,3 km/h (3 Bft) S-SW45 205 5 min 36,3 klux 248 W/m
11.05.2015 18:28 27,6 C 34,7 C 22,5 C 32 % 1017,7 hPa 0,0 l/m 20,0 km/h (4 Bft) S-SW45 200 0 min 27,0 klux 185 W/m
11.05.2015 18:33 27,4 C 33,5 C 22,5 C 31 % 1017,7 hPa 0,0 l/m 15,3 km/h (3 Bft) S-SW45 200 0 min 27,7 klux 189 W/m
11.05.2015 18:37 27,4 C 32,7 C 22,4 C 33 % 1017,7 hPa 0,0 l/m 17,7 km/h (3 Bft) S-SW22.5 205 4 min 30,8 klux 211 W/m
11.05.2015 18:43 27,3 C 32,6 C 22,4 C 34 % 1017,7 hPa 0,0 l/m 16,3 km/h (3 Bft) SW45 215 6 min 30,3 klux 207 W/m
11.05.2015 18:48 27,1 C 31,7 C 22,4 C 37 % 1017,7 hPa 0,0 l/m 18,2 km/h (3 Bft) SW22.5 220 0 min 22,4 klux 153 W/m
11.05.2015 18:53 27,1 C 30,6 C 22,4 C 37 % 1017,7 hPa 0,0 l/m 11,2 km/h (2 Bft) SW45 225 0 min 22,4 klux 153 W/m
11.05.2015 18:58 26,4 C 29,3 C 22,4 C 37 % 1017,7 hPa 0,0 l/m 21,3 km/h (4 Bft) SW45 230 0 min 21,8 klux 149 W/m
11.05.2015 19:03 26,0 C 28,6 C 22,3 C 38 % 1017,8 hPa 0,0 l/m 19,7 km/h (3 Bft) SW45 235 0 min 19,4 klux 133 W/m
11.05.2015 19:08 25,9 C 28,3 C 22,3 C 39 % 1017,8 hPa 0,0 l/m 21,0 km/h (4 Bft) SW22.5 235 0 min 18,4 klux 126 W/m
11.05.2015 19:13 25,9 C 27,6 C 22,3 C 37 % 1017,8 hPa 0,0 l/m 22,1 km/h (4 Bft) W-SW22.5 240 0 min 16,0 klux 109 W/m
11.05.2015 19:18 25,6 C 26,7 C 22,2 C 40 % 1017,8 hPa 0,0 l/m 22,0 km/h (4 Bft) W-SW22.5 240 0 min 12,4 klux 85 W/m
11.05.2015 19:23 25,2 C 26,4 C 22,2 C 38 % 1017,8 hPa 0,0 l/m 15,6 km/h (3 Bft) SW22.5 220 0 min 10,9 klux 75 W/m
11.05.2015 19:28 25,1 C 26,1 C 22,2 C 40 % 1017,8 hPa 0,0 l/m 17,6 km/h (3 Bft) SW22.5 220 0 min 10,6 klux 73 W/m
11.05.2015 19:33 25,1 C 25,8 C 22,2 C 41 % 1017,8 hPa 0,0 l/m 12,9 km/h (3 Bft) SW45 230 0 min 11,6 klux 79 W/m
11.05.2015 19:38 25,1 C 25,7 C 22,1 C 41 % 1017,8 hPa 0,0 l/m 11,7 km/h (2 Bft) SW22.5 235 0 min 11,2 klux 77 W/m
11.05.2015 19:43 24,8 C 25,7 C 22,0 C 42 % 1017,8 hPa 0,0 l/m 5,4 km/h (2 Bft) SW 225 0 min 10,2 klux 70 W/m
11.05.2015 19:48 24,8 C 25,7 C 22,0 C 43 % 1017,8 hPa 0,0 l/m 5,4 km/h (2 Bft) SW 225 0 min 9,8 klux 67 W/m
11.05.2015 19:53 24,6 C 25,3 C 22,1 C 43 % 1017,8 hPa 0,0 l/m 14,0 km/h (3 Bft) SW22.5 235 0 min 9,6 klux 65 W/m
11.05.2015 19:58 24,4 C 25,1 C 22,1 C 45 % 1017,8 hPa 0,0 l/m 13,0 km/h (3 Bft) W-SW22.5 245 0 min 9,5 klux 65 W/m
11.05.2015 20:03 24,1 C 24,6 C 22,0 C 45 % 1017,8 hPa 0,0 l/m 14,0 km/h (3 Bft) W-SW22.5 240 0 min 8,39 klux 57 W/m
11.05.2015 20:08 23,8 C 23,9 C 21,9 C 45 % 1017,8 hPa 0,0 l/m 10,1 km/h (2 Bft) SW22.5 230 0 min 6,99 klux 48 W/m
11.05.2015 20:13 23,8 C 23,9 C 21,9 C 43 % 1017,8 hPa 0,0 l/m 6,2 km/h (2 Bft) SW 230 0 min 5,77 klux 39 W/m
11.05.2015 20:18 23,9 C 23,4 C 21,9 C 43 % 1017,8 hPa 0,0 l/m 9,4 km/h (2 Bft) SW 235 0 min 5,29 klux 36 W/m
11.05.2015 20:23 24,0 C 23,0 C 21,8 C 42 % 1017,8 hPa 0,0 l/m 4,5 km/h (1 Bft) SW 230 0 min 4,56 klux 31 W/m
11.05.2015 20:28 23,8 C 22,7 C 21,9 C 44 % 1017,8 hPa 0,0 l/m 3,1 km/h (1 Bft) SW 230 0 min 3,99 klux 27 W/m
11.05.2015 20:32 23,6 C 22,5 C 21,9 C 44 % 1017,8 hPa 0,0 l/m 0,6 km/h (0 Bft) SW 230 0 min 3,46 klux 24 W/m
11.05.2015 20:38 23,4 C 21,9 C 21,8 C 45 % 1017,8 hPa 0,0 l/m 0,0 km/h (0 Bft) SW 230 0 min 2,69 klux 18 W/m
11.05.2015 20:43 22,8 C 21,3 C 21,8 C 46 % 1017,8 hPa 0,0 l/m 0,0 km/h (0 Bft) SW 230 0 min 2,27 klux 16 W/m
11.05.2015 20:48 22,7 C 21,0 C 21,8 C 46 % 1017,8 hPa 0,0 l/m 3,2 km/h (1 Bft) SW 215 0 min 2,05 klux 14 W/m
11.05.2015 20:53 22,5 C 20,6 C 21,8 C 46 % 1017,8 hPa 0,0 l/m 4,1 km/h (1 Bft) SW 215 0 min 1,58 klux 11 W/m
11.05.2015 20:58 22,4 C 20,1 C 21,8 C 46 % 1017,8 hPa 0,0 l/m 3,2 km/h (1 Bft) SW 215 0 min 1,09 klux 7 W/m
11.05.2015 21:02 22,4 C 19,8 C 21,7 C 46 % 1017,8 hPa 0,0 l/m 5,0 km/h (1 Bft) SW 215 0 min 743 lux 5 W/m
11.05.2015 21:08 22,4 C 19,4 C 21,7 C 46 % 1017,8 hPa 0,0 l/m 5,5 km/h (2 Bft) SW 215 0 min 476 lux 0 W/m
11.05.2015 21:13 22,1 C 19,0 C 21,7 C 49 % 1017,8 hPa 0,0 l/m 5,2 km/h (1 Bft) SW 215 0 min 300 lux 0 W/m
11.05.2015 21:18 21,7 C 18,7 C 21,5 C 51 % 1017,8 hPa 0,0 l/m 5,7 km/h (2 Bft) SW 215 0 min 209 lux 0 W/m
11.05.2015 21:23 21,6 C 18,4 C 21,5 C 50 % 1017,8 hPa 0,0 l/m 5,6 km/h (2 Bft) SW 215 0 min 113 lux 0 W/m
11.05.2015 21:27 21,4 C 18,1 C 21,4 C 50 % 1017,8 hPa 0,0 l/m 6,2 km/h (2 Bft) SW 215 0 min 78 lux 0 W/m
11.05.2015 21:33 21,0 C 17,7 C 21,4 C 51 % 1017,8 hPa 0,0 l/m 4,1 km/h (1 Bft) SW 215 0 min 36 lux 0 W/m
11.05.2015 21:38 20,8 C 17,6 C 21,4 C 51 % 1017,8 hPa 0,0 l/m 4,6 km/h (1 Bft) SW 215 0 min 25 lux 0 W/m
11.05.2015 21:43 20,6 C 17,2 C 21,3 C 52 % 1017,8 hPa 0,0 l/m 0,0 km/h (0 Bft) SW 215 0 min 11 lux 0 W/m
11.05.2015 21:48 20,4 C 16,8 C 21,3 C 53 % 1017,8 hPa 0,0 l/m 3,2 km/h (1 Bft) SW 215 0 min 4 lux 0 W/m
11.05.2015 21:53 20,1 C 16,7 C 21,2 C 53 % 1017,8 hPa 0,0 l/m 3,5 km/h (1 Bft) SW 215 0 min 0 lux 0 W/m
11.05.2015 21:58 19,9 C 16,6 C 21,2 C 55 % 1017,9 hPa 0,0 l/m 4,5 km/h (1 Bft) SW 215 0 min 0 lux 0 W/m
11.05.2015 22:03 19,7 C 16,4 C 21,0 C 55 % 1017,9 hPa 0,0 l/m 3,2 km/h (1 Bft) SW 215 0 min 0 lux 0 W/m
11.05.2015 22:08 19,6 C 16,3 C 21,0 C 57 % 1017,9 hPa 0,0 l/m 0,0 km/h (0 Bft) SW 215 0 min 0 lux 0 W/m
11.05.2015 22:13 19,4 C 16,1 C 20,9 C 57 % 1017,9 hPa 0,0 l/m 0,0 km/h (0 Bft) SW 215 0 min 0 lux 0 W/m
11.05.2015 22:18 19,1 C 15,9 C 20,9 C 58 % 1017,9 hPa 0,0 l/m 0,0 km/h (0 Bft) SW 215 0 min 0 lux 0 W/m
11.05.2015 22:22 18,8 C 15,5 C 20,7 C 58 % 1017,9 hPa 0,0 l/m 0,0 km/h (0 Bft) SW 215 0 min 0 lux 0 W/m
11.05.2015 22:28 18,6 C 15,4 C 20,7 C 59 % 1017,9 hPa 0,0 l/m 0,0 km/h (0 Bft) SW 215 0 min 0 lux 0 W/m
11.05.2015 22:33 18,5 C 15,3 C 20,7 C 60 % 1017,9 hPa 0,0 l/m 3,7 km/h (1 Bft) SW 215 0 min 0 lux 0 W/m
11.05.2015 22:38 18,4 C 15,4 C 20,6 C 61 % 1017,9 hPa 0,0 l/m 5,2 km/h (1 Bft) SW 215 0 min 0 lux 0 W/m
11.05.2015 22:43 18,4 C 15,3 C 20,6 C 61 % 1017,9 hPa 0,0 l/m 4,5 km/h (1 Bft) SW 215 0 min 0 lux 0 W/m
11.05.2015 22:48 18,6 C 15,2 C 20,6 C 60 % 1017,9 hPa 0,0 l/m 6,1 km/h (2 Bft) SW 215 0 min 0 lux 0 W/m
11.05.2015 22:53 18,5 C 15,2 C 20,5 C 62 % 1017,9 hPa 0,0 l/m 6,4 km/h (2 Bft) S45 175 0 min 0 lux 0 W/m
11.05.2015 22:57 18,4 C 15,2 C 20,5 C 62 % 1017,9 hPa 0,0 l/m 8,7 km/h (2 Bft) SO22.5 135 0 min 0 lux 0 W/m
11.05.2015 23:03 18,7 C 15,1 C 20,4 C 61 % 1017,9 hPa 0,0 l/m 8,9 km/h (2 Bft) SO 140 0 min 0 lux 0 W/m
11.05.2015 23:08 18,6 C 15,0 C 20,4 C 61 % 1017,9 hPa 0,0 l/m 0,5 km/h (0 Bft) SO 140 0 min 0 lux 0 W/m
11.05.2015 23:13 18,5 C 14,9 C 20,4 C 61 % 1017,9 hPa 0,0 l/m 1,1 km/h (1 Bft) SO 125 0 min 0 lux 0 W/m
11.05.2015 23:17 18,4 C 14,8 C 20,3 C 61 % 1017,9 hPa 0,0 l/m 4,6 km/h (1 Bft) SO 125 0 min 0 lux 0 W/m
11.05.2015 23:23 18,4 C 14,8 C 20,3 C 61 % 1017,9 hPa 0,0 l/m 8,7 km/h (2 Bft) SO 140 0 min 0 lux 0 W/m
11.05.2015 23:28 18,3 C 14,7 C 20,3 C 61 % 1017,9 hPa 0,0 l/m 6,5 km/h (2 Bft) SO 140 0 min 0 lux 0 W/m
11.05.2015 23:33 18,3 C 14,6 C 20,3 C 61 % 1017,9 hPa 0,0 l/m 5,9 km/h (2 Bft) SO 140 0 min 0 lux 0 W/m
11.05.2015 23:38 18,1 C 14,5 C 20,2 C 62 % 1017,9 hPa 0,0 l/m 0,6 km/h (0 Bft) SO 140 0 min 0 lux 0 W/m
11.05.2015 23:43 18,0 C 14,4 C 20,2 C 62 % 1017,9 hPa 0,0 l/m 0,1 km/h (0 Bft) SO 140 0 min 0 lux 0 W/m
11.05.2015 23:48 17,8 C 14,3 C 20,2 C 62 % 1017,9 hPa 0,0 l/m 0,6 km/h (0 Bft) SO 140 0 min 0 lux 0 W/m
11.05.2015 23:53 17,6 C 14,0 C 20,1 C 62 % 1017,9 hPa 0,0 l/m 0,0 km/h (0 Bft) SO 140 0 min 0 lux 0 W/m
11.05.2015 23:58 17,5 C 13,9 C 20,1 C 63 % 1017,9 hPa 0,0 l/m 0,0 km/h (0 Bft) SO 140 0 min 0 lux 0 W/m
_ Min-Zeit 00:43 00:53 07:28 18:33 16:58 - 20:38 - - - - -
Minimum _ 13,2 C 9,3 C 16,2 C 31 % 1017,7 hPa - 0,0 km/h (0 Bft) - - - - -
_ Max-Zeit 16:58 14:13 18:08 04:18 00:43 00:03 10:08 - - 10:38 14:03 14:03
Maximum _ 28,2 C 52,1 C 22,6 C 69 % 1023,0 hPa 0,0 l/m 27,9 km/h
S-SO (5 Bft)
- - 6 min 87,3 klux 597 W/m
Durchschnitt _ 19,8 C 24,9 C 18,8 C 54 % 1020,4 hPa #0,0 l/m 13,0 km/h (3 Bft) S-SO - #5:41 h 24,6 klux 265 W/m